Airfield :
LOGIN :

Register | Disclaimer

   EN    FR    IT 

 










Legend :    VFR   Marginal VFR   IFR   Intensive IFR   Very Intensive IFR
Visi :
Ceiling :
>= 8 km
>= 3000ft
5 to 8 km
1000 to 3000 ft
1500m to 5 km
500 to 1000 ft
800 to 1500m
200 to 500 ft
< 800m
< 200 ft
Symbols :   Thunderstorms  Fog  Heavy snow  Heavy precipitations  Wind > 20 kt
SIGMETs :     Misc.  Thunderstorms  Icing  Turbulence  Mountain Waves  Volcanic Ashes






- Airport Elevation : 276 ft
- IATA code : RBA


GMME - Rabat

CURRENT METAR :
  • 250130Z 32004KT 290V010 5000 FEW010 BKN015 21/18 Q1013 NOSIG

EXPIRED METARs :
  • 250030Z 28003KT 5000 FEW010 BKN015 21/18 Q1014 NOSIG
  • 242330Z 30004KT 270V330 5000 FEW010 BKN015 21/19 Q1015 NOSIG
  • 242300Z 30004KT 250V340 5000 BKN015 SCT166 22/19 Q1015 NOSIG

TAF TAF GMME
Valid from the 25 at 00:00 until the 26 at 06:00 UTC


242300Z 2500/2606 30006KT 5000 SCT010 BKN016
PROB30
TEMPO 2502/2506 VRB02KT 4000 BR BKN006



MET'MAP, your aeronautical weather chart ! - Copyright ORBIFLY December 2007 - Disclaimer

ORBIFLY MET'MAP TEAM :

Programming & Development : Alexandra Zaïnal
Original concept : Baudouin d'Aumeries
Technical & hardware support : Manuel Goepfert
Assistance : Marc-Olivier Méhu




SOURCES & CREDITS :

   NOAA